< < Back
Terminal Aerodrome Forecast


Current Version              Previous Versions:   1  2  3  4  5  6  7  8  9  

Terminal Aerodrome Forecast

369
FTUS44 KMOB 031628 AAA
TAFPNS
TAF AMD
KPNS 031628Z 0316/0412 VRB04KT P6SM VCTS BKN015CB BKN040 BKN060
      TEMPO 0318/0322 VRB25KT P6SM TSRA BKN015CB
     FM040500 35008KT P6SM OVC025
     FM040900 35008KT P6SM OVC050=

Latest METAR

374
SAUS70 KWBC 031800 RRG
MTRPNS
METAR KPNS 031753Z 33004KT 10SM BKN025 BKN095 27/19 A2990 RMK AO2 SLP126
T02720194 10278 20222 58012


USA.gov is the U.S. government's official web portal to all federal, state and local government web resources and services.